Time;durP1;ratioP1;P1;durP2;ratioP2;P2;SDS_P1;SDS_P2;PMS_P1;PMS_P2;Temp;Humidity;BMP_temperature;BMP_pressure;BME280_temperature;BME280_humidity;BME280_pressure;Samples;Min_cycle;Max_cycle;Signal;HPM_P1;HPM_P2
2022/03/04 00:02:46;;;;;;;39.47;20.87;;;;;1.50;101276.00;;;;10471600;28;20196;-79
2022/03/04 00:07:48;;;;;;;31.20;20.87;;;;;1.60;101259.00;;;;10519004;28;20788;-80
2022/03/04 00:12:50;;;;;;;40.07;21.73;;;;;1.70;101265.00;;;;10538437;28;20540;-80
2022/03/04 00:17:52;;;;;;;46.10;21.53;;;;;1.70;101270.00;;;;10536853;28;20307;-79
2022/03/04 00:22:55;;;;;;;35.43;20.00;;;;;1.70;101277.00;;;;10538726;28;20184;-80
2022/03/04 00:27:57;;;;;;;30.90;19.50;;;;;1.70;101269.00;;;;10543366;28;20202;-80
2022/03/04 00:32:59;;;;;;;31.80;18.73;;;;;1.80;101274.00;;;;10487797;28;20190;-80
2022/03/04 00:38:01;;;;;;;30.33;19.13;;;;;1.80;101283.00;;;;10454827;28;20288;-80
2022/03/04 00:43:03;;;;;;;29.10;18.17;;;;;1.90;101276.00;;;;10470833;28;20281;-80
2022/03/04 00:48:05;;;;;;;29.63;18.23;;;;;2.00;101276.00;;;;10482800;28;20217;-80
2022/03/04 00:53:07;;;;;;;30.93;19.07;;;;;2.00;101287.00;;;;10511995;28;20188;-79
2022/03/04 00:58:09;;;;;;;28.50;17.60;;;;;1.90;101266.00;;;;10511925;28;20197;-80
2022/03/04 01:03:11;;;;;;;32.07;18.07;;;;;2.00;101271.00;;;;10487729;28;20606;-80
2022/03/04 01:08:13;;;;;;;31.07;18.90;;;;;2.00;101270.00;;;;10468035;28;20216;-80
2022/03/04 01:13:16;;;;;;;27.57;17.77;;;;;2.10;101275.00;;;;10453949;28;20181;-79
2022/03/04 01:18:18;;;;;;;31.40;17.47;;;;;2.10;101272.00;;;;10452912;28;20224;-79
2022/03/04 01:23:20;;;;;;;26.13;16.77;;;;;2.10;101280.00;;;;10485265;28;20774;-80
2022/03/04 01:28:22;;;;;;;27.37;16.77;;;;;2.20;101275.00;;;;10460145;28;20197;-79
2022/03/04 01:33:24;;;;;;;29.23;15.63;;;;;2.20;101270.00;;;;10536394;28;20574;-80
2022/03/04 01:38:27;;;;;;;28.10;16.57;;;;;2.30;101269.00;;;;10577444;28;20216;-80
2022/03/04 01:43:30;;;;;;;26.33;18.10;;;;;2.30;101261.00;;;;10532757;28;20258;-80
2022/03/04 01:48:34;;;;;;;23.67;15.93;;;;;2.10;101272.00;;;;10534323;28;20246;-79
2022/03/04 01:53:38;;;;;;;24.20;15.67;;;;;2.10;101270.00;;;;10484094;28;20622;-80
2022/03/04 01:58:40;;;;;;;25.30;15.70;;;;;2.20;101273.00;;;;10482722;28;20296;-80
2022/03/04 02:03:42;;;;;;;26.23;16.43;;;;;2.10;101276.00;;;;10484147;28;20201;-79
2022/03/04 02:08:44;;;;;;;24.73;16.60;;;;;2.10;101267.00;;;;10556913;28;20204;-80
2022/03/04 02:13:46;;;;;;;23.73;14.80;;;;;2.10;101268.00;;;;10539031;28;20192;-78
2022/03/04 02:18:48;;;;;;;27.90;15.77;;;;;2.00;101260.00;;;;10556382;28;20200;-80
2022/03/04 02:23:50;;;;;;;24.37;14.37;;;;;1.90;101265.00;;;;10538678;28;20222;-79
2022/03/04 02:28:52;;;;;;;24.37;15.87;;;;;2.00;101280.00;;;;10534727;28;20189;-79
2022/03/04 02:33:54;;;;;;;24.47;14.80;;;;;2.10;101269.00;;;;10496807;28;20193;-79
2022/03/04 02:38:56;;;;;;;30.13;15.03;;;;;2.00;101262.00;;;;10512740;28;20209;-80
2022/03/04 02:43:58;;;;;;;22.17;14.60;;;;;2.00;101265.00;;;;10496185;28;20189;-80
2022/03/04 02:49:00;;;;;;;24.83;15.00;;;;;1.80;101262.00;;;;10529577;28;20185;-79
2022/03/04 02:54:02;;;;;;;24.90;14.87;;;;;1.60;101260.00;;;;10496062;28;20231;-80
2022/03/04 02:59:04;;;;;;;24.90;14.20;;;;;1.30;101255.00;;;;10478705;28;20212;-80
2022/03/04 03:04:06;;;;;;;25.17;14.20;;;;;1.20;101254.00;;;;10494968;28;20655;-78
2022/03/04 03:09:09;;;;;;;25.43;16.27;;;;;1.10;101249.00;;;;10495700;28;20899;-80
2022/03/04 03:14:11;;;;;;;23.77;15.30;;;;;0.90;101251.00;;;;10494717;28;20193;-80
2022/03/04 03:19:14;;;;;;;25.40;15.80;;;;;0.80;101256.00;;;;10526695;28;20237;-80
2022/03/04 03:24:16;;;;;;;23.77;14.73;;;;;0.70;101262.00;;;;10493974;28;20275;-80
2022/03/04 03:29:18;;;;;;;24.60;15.50;;;;;0.60;101259.00;;;;10492633;28;20185;-80
2022/03/04 03:34:20;;;;;;;27.17;14.40;;;;;0.60;101251.00;;;;10485804;28;20207;-79
2022/03/04 03:39:22;;;;;;;21.30;13.17;;;;;0.70;101254.00;;;;10551713;28;20864;-80
2022/03/04 03:44:24;;;;;;;24.13;14.67;;;;;0.80;101261.00;;;;10534700;28;20195;-80
2022/03/04 03:49:26;;;;;;;22.80;14.70;;;;;0.90;101264.00;;;;10543965;28;20184;-80
2022/03/04 03:54:28;;;;;;;24.40;14.93;;;;;0.90;101262.00;;;;10494024;28;20189;-81
2022/03/04 03:59:30;;;;;;;25.43;15.30;;;;;0.80;101264.00;;;;10483617;28;20209;-80
2022/03/04 04:04:36;;;;;;;23.10;14.30;;;;;0.70;101267.00;;;;10495590;28;20244;-80
2022/03/04 04:09:39;;;;;;;25.00;15.37;;;;;0.60;101259.00;;;;10511322;28;20566;-78
2022/03/04 04:14:41;;;;;;;27.37;15.50;;;;;0.50;101273.00;;;;10474921;28;20729;-77
2022/03/04 04:19:43;;;;;;;29.03;15.50;;;;;0.20;101270.00;;;;10507085;28;20228;-78
2022/03/04 04:24:45;;;;;;;25.53;15.43;;;;;-0.10;101271.00;;;;10493767;28;20275;-78
2022/03/04 04:29:47;;;;;;;29.90;14.20;;;;;-0.30;101283.00;;;;10485943;28;20196;-78
2022/03/04 04:34:48;;;;;;;26.27;15.37;;;;;-0.40;101276.00;;;;10464249;28;20204;-78
2022/03/04 04:39:50;;;;;;;26.03;15.37;;;;;-0.60;101276.00;;;;10492429;28;20220;-78
2022/03/04 04:44:52;;;;;;;27.50;16.03;;;;;-0.70;101292.00;;;;10508215;28;20193;-79
2022/03/04 04:49:54;;;;;;;27.03;16.37;;;;;-0.80;101289.00;;;;10475605;28;20185;-80
2022/03/04 04:54:56;;;;;;;29.50;15.83;;;;;-0.90;101287.00;;;;10475306;28;20258;-78
2022/03/04 04:59:58;;;;;;;26.63;15.63;;;;;-0.90;101300.00;;;;10511462;28;20215;-78
2022/03/04 05:05:00;;;;;;;28.43;17.20;;;;;-1.00;101295.00;;;;10498568;28;20217;-78
2022/03/04 05:10:04;;;;;;;33.53;17.23;;;;;-1.00;101292.00;;;;10482830;28;20703;-78
2022/03/04 05:15:07;;;;;;;29.40;17.37;;;;;-1.10;101300.00;;;;10484835;28;20189;-77
2022/03/04 05:20:09;;;;;;;28.37;15.83;;;;;-1.10;101300.00;;;;10482064;28;20762;-78
2022/03/04 05:25:13;;;;;;;28.10;16.03;;;;;-1.10;101306.00;;;;10482878;28;20188;-76
2022/03/04 05:30:19;;;;;;;29.77;17.47;;;;;-1.20;101317.00;;;;10466544;28;20236;-78
2022/03/04 05:35:21;;;;;;;30.37;17.33;;;;;-1.30;101318.00;;;;10480322;28;20208;-77
2022/03/04 05:40:22;;;;;;;31.27;17.30;;;;;-1.30;101320.00;;;;10472398;28;20206;-77
2022/03/04 05:45:24;;;;;;;28.30;17.47;;;;;-1.30;101322.00;;;;10458532;28;20194;-80
2022/03/04 05:50:26;;;;;;;30.50;18.37;;;;;-1.40;101337.00;;;;10470935;28;20189;-79
2022/03/04 05:55:28;;;;;;;29.50;16.63;;;;;-1.40;101335.00;;;;10497611;28;20200;-78
2022/03/04 06:00:31;;;;;;;26.87;15.67;;;;;-1.40;101336.00;;;;10497397;28;20234;-79
2022/03/04 06:05:39;;;;;;;31.63;16.07;;;;;-1.50;101344.00;;;;10497650;28;20274;-80
2022/03/04 06:10:41;;;;;;;30.27;16.93;;;;;-1.50;101343.00;;;;10496392;28;20197;-79
2022/03/04 06:15:43;;;;;;;28.00;16.67;;;;;-1.50;101351.00;;;;10530284;28;20193;-79
2022/03/04 06:20:46;;;;;;;33.63;17.60;;;;;-1.60;101358.00;;;;10480472;28;20243;-80
2022/03/04 06:25:50;;;;;;;27.00;16.87;;;;;-1.60;101363.00;;;;10479615;28;20287;-78
2022/03/04 06:30:53;;;;;;;31.27;17.73;;;;;-1.50;101358.00;;;;10481107;28;20181;-78
2022/03/04 06:35:58;;;;;;;29.13;18.23;;;;;-1.40;101375.00;;;;10533330;28;20205;-79
2022/03/04 06:41:01;;;;;;;27.10;16.77;;;;;-1.40;101369.00;;;;10512305;28;20264;-79
2022/03/04 06:46:03;;;;;;;27.00;16.60;;;;;-1.30;101370.00;;;;10478444;28;20250;-79
2022/03/04 06:51:06;;;;;;;29.50;17.17;;;;;-1.20;101377.00;;;;10496060;28;20193;-79
2022/03/04 06:56:08;;;;;;;30.13;17.67;;;;;-1.10;101377.00;;;;10512019;28;20193;-79
2022/03/04 07:01:10;;;;;;;27.53;17.23;;;;;-0.90;101381.00;;;;10494822;28;20263;-79
2022/03/04 07:06:12;;;;;;;28.57;17.03;;;;;-0.70;101392.00;;;;10501351;28;20247;-79
2022/03/04 07:11:14;;;;;;;32.90;17.57;;;;;-0.30;101395.00;;;;10494687;28;20196;-78
2022/03/04 07:16:16;;;;;;;31.07;18.10;;;;;0.00;101394.00;;;;10468933;28;20227;-79
2022/03/04 07:21:18;;;;;;;27.67;17.53;;;;;0.40;101404.00;;;;10492769;28;20236;-78
2022/03/04 07:26:20;;;;;;;28.30;17.53;;;;;0.80;101421.00;;;;10460687;28;20195;-79
2022/03/04 07:31:22;;;;;;;30.17;17.67;;;;;1.30;101424.00;;;;10488109;28;20912;-79
2022/03/04 07:36:24;;;;;;;30.37;16.87;;;;;2.00;101426.00;;;;10459530;28;20266;-79
2022/03/04 07:41:26;;;;;;;26.00;16.30;;;;;2.60;101419.00;;;;10499876;28;20255;-79
2022/03/04 07:46:28;;;;;;;25.63;16.17;;;;;3.10;101433.00;;;;10492389;28;20667;-78
2022/03/04 07:51:30;;;;;;;24.40;15.67;;;;;3.40;101423.00;;;;10480318;28;20265;-78
2022/03/04 07:56:33;;;;;;;25.43;16.13;;;;;3.80;101425.00;;;;10492016;28;20197;-78
2022/03/04 08:01:36;;;;;;;24.23;15.30;;;;;4.00;101432.00;;;;10479402;28;20219;-78
2022/03/04 08:06:39;;;;;;;31.63;17.10;;;;;4.40;101442.00;;;;10460777;28;20213;-78
2022/03/04 08:11:41;;;;;;;23.00;15.10;;;;;4.70;101449.00;;;;10503371;28;20180;-78
2022/03/04 08:16:43;;;;;;;21.37;14.67;;;;;5.10;101452.00;;;;10493213;28;20228;-78
2022/03/04 08:21:47;;;;;;;21.70;15.37;;;;;5.50;101453.00;;;;10462483;28;20235;-77
2022/03/04 08:26:48;;;;;;;23.30;14.60;;;;;5.90;101456.00;;;;10470721;28;20223;-79
2022/03/04 08:31:50;;;;;;;22.20;14.57;;;;;6.30;101452.00;;;;10471612;28;20185;-78
2022/03/04 08:36:53;;;;;;;22.10;15.27;;;;;6.70;101463.00;;;;10509393;28;20220;-77
2022/03/04 08:41:55;;;;;;;25.87;14.17;;;;;7.20;101468.00;;;;10516885;28;20197;-79
2022/03/04 08:46:57;;;;;;;23.17;15.50;;;;;7.60;101474.00;;;;10489046;28;20235;-79
2022/03/04 08:51:59;;;;;;;21.73;15.00;;;;;8.00;101474.00;;;;10534278;28;20263;-78
2022/03/04 08:57:02;;;;;;;18.80;13.13;;;;;8.30;101476.00;;;;10475378;28;20193;-79
2022/03/04 09:02:05;;;;;;;19.83;14.23;;;;;8.60;101484.00;;;;10500902;28;20255;-79
2022/03/04 09:07:08;;;;;;;19.97;13.33;;;;;9.00;101484.00;;;;10512159;28;20254;-79
2022/03/04 09:12:10;;;;;;;19.33;12.97;;;;;9.30;101487.00;;;;10517120;28;20240;-78
2022/03/04 09:17:12;;;;;;;21.30;12.73;;;;;9.70;101484.00;;;;10500340;28;20200;-78
2022/03/04 09:22:15;;;;;;;18.03;12.40;;;;;10.00;101485.00;;;;10514855;28;20596;-79
2022/03/04 09:27:17;;;;;;;15.70;12.37;;;;;10.40;101491.00;;;;10515251;28;20284;-78
2022/03/04 09:32:19;;;;;;;18.60;12.87;;;;;10.60;101487.00;;;;10513461;28;20201;-78
2022/03/04 09:37:21;;;;;;;18.17;11.87;;;;;10.80;101482.00;;;;10514387;28;20204;-78
2022/03/04 09:42:23;;;;;;;17.70;12.67;;;;;11.20;101489.00;;;;10472989;28;20292;-79
2022/03/04 09:47:26;;;;;;;19.00;12.60;;;;;11.80;101482.00;;;;10508283;28;20234;-78
2022/03/04 09:52:30;;;;;;;17.67;12.10;;;;;12.30;101480.00;;;;10499172;28;20774;-79
2022/03/04 09:57:33;;;;;;;14.73;12.30;;;;;12.20;101482.00;;;;10501356;28;20288;-79
2022/03/04 10:02:36;;;;;;;16.47;12.10;;;;;12.50;101485.00;;;;10516272;28;20197;-79
2022/03/04 10:07:45;;;;;;;16.80;13.03;;;;;13.00;101477.00;;;;10503602;28;20213;-79
2022/03/04 10:12:55;;;;;;;17.17;12.83;;;;;13.10;101488.00;;;;10490686;28;20204;-79
2022/03/04 10:18:04;;;;;;;18.67;13.73;;;;;13.00;101484.00;;;;10515213;28;20256;-78
2022/03/04 10:23:22;;;;;;;18.77;12.77;;;;;13.40;101479.00;;;;10481149;28;20207;-78
2022/03/04 10:28:26;;;;;;;16.73;13.07;;;;;13.90;101480.00;;;;10496616;28;20193;-79
2022/03/04 10:33:29;;;;;;;16.80;13.67;;;;;14.00;101478.00;;;;10476522;28;20238;-78
2022/03/04 10:38:31;;;;;;;16.20;12.87;;;;;14.10;101481.00;;;;10495566;28;20219;-79
2022/03/04 10:43:35;;;;;;;16.80;11.77;;;;;14.40;101478.00;;;;10511639;28;20742;-78
2022/03/04 10:48:37;;;;;;;19.07;12.67;;;;;14.80;101479.00;;;;10528255;28;20647;-79
2022/03/04 10:53:40;;;;;;;17.77;13.33;;;;;15.00;101476.00;;;;10512658;28;20237;-79
2022/03/04 10:58:42;;;;;;;17.07;13.13;;;;;15.30;101474.00;;;;10479247;28;20216;-79
2022/03/04 11:03:44;;;;;;;16.00;11.77;;;;;15.30;101468.00;;;;10493078;28;20227;-80
2022/03/04 11:08:46;;;;;;;18.03;14.23;;;;;15.50;101467.00;;;;10510576;28;20217;-78
2022/03/04 11:13:49;;;;;;;18.17;13.60;;;;;15.60;101462.00;;;;10494397;28;20185;-78
2022/03/04 11:18:51;;;;;;;17.57;13.83;;;;;15.70;101465.00;;;;10478642;28;20303;-78
2022/03/04 11:23:53;;;;;;;15.30;11.57;;;;;16.20;101467.00;;;;10479666;28;20197;-79
2022/03/04 11:28:56;;;;;;;16.87;12.73;;;;;16.10;101468.00;;;;10511453;28;20188;-78
2022/03/04 11:34:03;;;;;;;20.87;14.17;;;;;16.00;101466.00;;;;10514163;28;20189;-78
2022/03/04 11:39:10;;;;;;;17.63;13.70;;;;;16.10;101460.00;;;;10529163;28;20282;-78
2022/03/04 11:44:22;;;;;;;19.47;13.80;;;;;16.30;101456.00;;;;10500235;28;20200;-79
2022/03/04 11:49:33;;;;;;;17.47;13.77;;;;;16.40;101453.00;;;;10496447;28;20220;-79
2022/03/04 11:54:39;;;;;;;17.13;13.93;;;;;16.50;101446.00;;;;10495428;28;20197;-78
2022/03/04 11:59:55;;;;;;;18.40;14.10;;;;;16.30;101456.00;;;;10492177;28;20212;-79
2022/03/04 12:05:13;;;;;;;21.00;14.17;;;;;16.20;101442.00;;;;10506067;28;20274;-78
2022/03/04 12:10:19;;;;;;;21.73;13.93;;;;;16.30;101440.00;;;;10475888;28;20185;-78
2022/03/04 12:15:24;;;;;;;17.93;13.93;;;;;16.40;101425.00;;;;10525287;28;20207;-78
2022/03/04 12:20:39;;;;;;;17.37;13.87;;;;;16.70;101424.00;;;;10526846;28;20724;-79
2022/03/04 12:25:59;;;;;;;16.45;12.82;;;;;16.60;101424.00;;;;10508601;28;20207;-78
2022/03/04 12:31:01;;;;;;;17.37;13.67;;;;;16.40;101426.00;;;;10474914;28;20192;-79
2022/03/04 12:36:08;;;;;;;15.03;12.07;;;;;16.60;101411.00;;;;10496201;28;20223;-78
2022/03/04 12:41:16;;;;;;;17.45;12.68;;;;;16.70;101417.00;;;;10490963;28;20220;-79
2022/03/04 12:46:21;;;;;;;14.63;12.27;;;;;17.00;101397.00;;;;10475397;28;20204;-79
2022/03/04 12:51:35;;;;;;;13.25;11.85;;;;;17.00;101391.00;;;;10490831;28;20199;-79
2022/03/04 12:56:37;;;;;;;14.38;12.20;;;;;17.20;101393.00;;;;10490352;28;20292;-79
2022/03/04 13:01:44;;;;;;;15.15;12.50;;;;;17.60;101393.00;;;;10490303;28;20571;-78
2022/03/04 13:06:58;;;;;;;14.82;11.93;;;;;17.50;101384.00;;;;10535757;28;20227;-78
2022/03/04 13:12:05;;;;;;;12.15;10.05;;;;;17.40;101387.00;;;;10520828;28;20217;-79
2022/03/04 13:17:12;;;;;;;14.63;11.02;;;;;17.70;101386.00;;;;10490637;28;20185;-79
2022/03/04 13:22:16;;;;;;;11.57;10.00;;;;;17.60;101383.00;;;;10479730;28;20205;-78
2022/03/04 13:27:18;;;;;;;14.15;11.05;;;;;17.70;101375.00;;;;10498717;28;20200;-78
2022/03/04 13:32:22;;;;;;;15.50;11.07;;;;;17.70;101378.00;;;;10514946;28;20212;-79
2022/03/04 13:37:30;;;;;;;18.05;11.30;;;;;17.30;101369.00;;;;10539874;28;20299;-78
2022/03/04 13:42:32;;;;;;;12.02;10.73;;;;;17.10;101374.00;;;;10474529;28;20240;-80
2022/03/04 13:47:43;;;;;;;14.30;10.48;;;;;17.60;101368.00;;;;10486157;28;20193;-79
2022/03/04 13:52:55;;;;;;;14.60;11.55;;;;;17.40;101360.00;;;;10516381;28;20655;-80
2022/03/04 13:57:58;;;;;;;16.02;11.27;;;;;19.20;101375.00;;;;10515967;28;20188;-78
2022/03/04 14:03:12;;;;;;;13.10;11.20;;;;;18.90;101344.00;;;;10517438;28;20555;-78
2022/03/04 14:08:19;;;;;;;13.55;11.10;;;;;21.10;101322.00;;;;10517790;28;20221;-78
2022/03/04 14:13:23;;;;;;;13.25;10.57;;;;;21.80;101304.00;;;;10534346;28;20784;-79
2022/03/04 14:18:31;;;;;;;13.70;11.20;;;;;22.10;101301.00;;;;10516489;28;20205;-79
2022/03/04 14:23:35;;;;;;;13.90;10.80;;;;;20.60;101331.00;;;;10498078;28;20653;-79
2022/03/04 14:28:37;;;;;;;12.32;10.25;;;;;18.90;101296.00;;;;10497677;28;20359;-77
2022/03/04 14:33:39;;;;;;;13.47;9.97;;;;;20.00;101285.00;;;;10499766;28;20204;-78
2022/03/04 14:38:41;;;;;;;11.00;8.83;;;;;19.10;101327.00;;;;10557774;28;20326;-78
2022/03/04 14:43:43;;;;;;;13.40;10.37;;;;;18.20;101339.00;;;;10539795;28;20232;-78
2022/03/04 14:48:47;;;;;;;12.10;10.03;;;;;18.70;101275.00;;;;10491776;28;20181;-77
2022/03/04 14:53:49;;;;;;;11.60;9.00;;;;;21.70;101255.00;;;;10515673;28;20232;-77
2022/03/04 14:58:51;;;;;;;11.40;8.43;;;;;23.00;101240.00;;;;10498013;28;20216;-79
2022/03/04 15:03:53;;;;;;;9.70;8.20;;;;;22.50;101316.00;;;;10507837;28;20647;-80
2022/03/04 15:08:55;;;;;;;17.60;10.40;;;;;21.80;101284.00;;;;10524088;28;20790;-77
2022/03/04 15:14:17;;;;;;;14.75;9.70;;;;;21.70;101250.00;;;;10518891;28;20192;-80
2022/03/04 15:19:19;;;;;;;13.20;10.27;;;;;19.60;101361.00;;;;10532059;28;20200;-78
2022/03/04 15:24:21;;;;;;;13.30;10.50;;;;;20.10;101283.00;;;;10512598;28;20199;-79
2022/03/04 15:29:24;;;;;;;12.23;9.05;;;;;20.50;101299.00;;;;10501597;28;20189;-78
2022/03/04 15:34:46;;;;;;;13.45;9.95;;;;;20.90;101298.00;;;;10514192;28;20196;-79
2022/03/04 15:39:48;;;;;;;12.57;9.13;;;;;17.10;101340.00;;;;10541979;28;20244;-80
2022/03/04 15:44:55;;;;;;;13.60;10.23;;;;;15.40;101360.00;;;;10533799;28;20184;-78
2022/03/04 15:49:57;;;;;;;13.67;9.87;;;;;14.30;101344.00;;;;10485828;28;20190;-79
2022/03/04 15:55:00;;;;;;;12.60;9.00;;;;;14.40;101343.00;;;;10459423;28;20201;-78
2022/03/04 16:00:04;;;;;;;13.00;9.20;;;;;13.90;101336.00;;;;10468493;28;20267;-79
2022/03/04 16:05:06;;;;;;;14.00;9.83;;;;;13.20;101338.00;;;;10479391;28;20247;-79
2022/03/04 16:10:09;;;;;;;12.00;9.57;;;;;12.50;101340.00;;;;10491181;28;20536;-78
2022/03/04 16:15:11;;;;;;;16.23;10.07;;;;;12.20;101347.00;;;;10474870;28;20254;-79
2022/03/04 16:20:13;;;;;;;16.57;9.07;;;;;11.90;101336.00;;;;10492002;28;20545;-79
2022/03/04 16:25:14;;;;;;;11.27;7.93;;;;;11.70;101342.00;;;;10507671;28;20200;-79
2022/03/04 16:30:16;;;;;;;11.93;8.17;;;;;11.40;101336.00;;;;10507400;28;20188;-79
2022/03/04 16:35:19;;;;;;;10.87;8.13;;;;;11.30;101336.00;;;;10499712;28;20200;-78
2022/03/04 16:40:21;;;;;;;14.27;9.00;;;;;11.10;101329.00;;;;10568002;28;20200;-79
2022/03/04 16:45:24;;;;;;;13.93;9.00;;;;;10.90;101338.00;;;;10537854;28;20194;-78
2022/03/04 16:50:27;;;;;;;14.77;9.17;;;;;10.70;101339.00;;;;10494983;28;20247;-78
2022/03/04 16:55:29;;;;;;;16.73;9.27;;;;;10.40;101335.00;;;;10512598;28;20219;-78
2022/03/04 17:00:36;;;;;;;14.30;9.07;;;;;10.20;101341.00;;;;10479898;28;20263;-79
2022/03/04 17:05:38;;;;;;;15.00;10.53;;;;;9.80;101346.00;;;;10504083;28;20224;-79
2022/03/04 17:10:42;;;;;;;15.97;10.17;;;;;9.50;101348.00;;;;10500530;28;20189;-79
2022/03/04 17:15:46;;;;;;;16.33;9.17;;;;;9.20;101348.00;;;;10489954;28;20607;-79
2022/03/04 17:20:48;;;;;;;12.17;9.03;;;;;8.80;101355.00;;;;10515284;28;20659;-78
2022/03/04 17:25:51;;;;;;;14.60;9.20;;;;;8.50;101371.00;;;;10517731;28;20276;-79
2022/03/04 17:30:55;;;;;;;15.77;9.30;;;;;8.10;101376.00;;;;10484342;28;20206;-80
2022/03/04 17:35:57;;;;;;;12.43;9.17;;;;;7.80;101371.00;;;;10508307;28;20745;-79
2022/03/04 17:41:00;;;;;;;16.00;9.83;;;;;7.60;101374.00;;;;10490052;28;20232;-79
2022/03/04 17:46:02;;;;;;;13.40;9.87;;;;;7.30;101374.00;;;;10491252;28;20243;-78
2022/03/04 17:51:04;;;;;;;13.40;9.40;;;;;7.00;101368.00;;;;10521705;28;20579;-78
2022/03/04 17:56:06;;;;;;;16.00;9.63;;;;;6.80;101372.00;;;;10518422;28;20196;-80
2022/03/04 18:01:08;;;;;;;17.90;10.87;;;;;6.50;101375.00;;;;10487952;28;20213;-79
2022/03/04 18:06:10;;;;;;;17.40;9.50;;;;;6.40;101366.00;;;;10502116;28;20695;-78
2022/03/04 18:11:12;;;;;;;18.37;9.90;;;;;6.40;101382.00;;;;10498322;28;20196;-77
2022/03/04 18:16:16;;;;;;;13.80;9.93;;;;;6.20;101377.00;;;;10473174;28;20219;-76
2022/03/04 18:21:18;;;;;;;16.20;10.07;;;;;6.10;101376.00;;;;10503823;28;20284;-79
2022/03/04 18:26:20;;;;;;;16.10;10.20;;;;;6.10;101375.00;;;;10471363;28;20250;-78
2022/03/04 18:31:22;;;;;;;18.07;9.70;;;;;5.90;101375.00;;;;10487834;28;20525;-78
2022/03/04 18:36:42;;;;;;;17.00;10.50;;;;;5.60;101376.00;;;;12334267;22;21564;-79
2022/03/04 18:41:44;;;;;;;20.47;12.03;;;;;5.40;101385.00;;;;10339305;28;20234;-78
2022/03/04 18:46:46;;;;;;;22.10;15.40;;;;;5.10;101380.00;;;;10334314;28;20196;-78
2022/03/04 18:51:47;;;;;;;23.47;15.97;;;;;5.00;101398.00;;;;10325395;28;20207;-78
2022/03/04 18:56:50;;;;;;;22.30;14.67;;;;;4.90;101385.00;;;;10326102;28;20200;-79
2022/03/04 19:01:57;;;;;;;26.03;12.70;;;;;4.70;101394.00;;;;10336413;28;20336;-78
2022/03/04 19:07:00;;;;;;;22.60;13.37;;;;;4.60;101394.00;;;;10338316;28;20424;-78
2022/03/04 19:12:03;;;;;;;19.90;13.87;;;;;4.60;101393.00;;;;10341492;28;20303;-78
2022/03/04 19:17:08;;;;;;;22.90;14.30;;;;;4.40;101401.00;;;;10324573;28;20212;-78
2022/03/04 19:22:12;;;;;;;22.30;15.60;;;;;4.30;101406.00;;;;10314027;28;20214;-78
2022/03/04 19:27:14;;;;;;;25.10;15.37;;;;;4.10;101404.00;;;;10350345;28;20279;-77
2022/03/04 19:32:16;;;;;;;21.23;14.83;;;;;3.90;101399.00;;;;10329956;28;20191;-78
2022/03/04 19:37:18;;;;;;;29.90;16.47;;;;;3.80;101396.00;;;;10300519;28;20259;-78
2022/03/04 19:42:20;;;;;;;25.50;16.60;;;;;3.70;101397.00;;;;10271273;28;20220;-78
2022/03/04 19:47:22;;;;;;;26.43;16.23;;;;;3.60;101401.00;;;;10258962;28;20200;-78
2022/03/04 19:52:24;;;;;;;26.80;15.90;;;;;3.50;101401.00;;;;10293578;28;20199;-78
2022/03/04 19:57:26;;;;;;;24.17;15.40;;;;;3.40;101403.00;;;;10293914;28;20192;-78
2022/03/04 20:02:28;;;;;;;24.23;15.40;;;;;3.30;101412.00;;;;10277325;28;20314;-78
2022/03/04 20:07:30;;;;;;;32.10;17.97;;;;;3.20;101406.00;;;;10326544;28;20214;-78
2022/03/04 20:12:32;;;;;;;22.33;14.80;;;;;3.10;101408.00;;;;10318087;28;20199;-78
2022/03/04 20:17:35;;;;;;;26.77;18.20;;;;;3.10;101403.00;;;;10317809;28;20468;-78
2022/03/04 20:22:36;;;;;;;29.43;16.87;;;;;3.00;101399.00;;;;10308973;28;20227;-78
2022/03/04 20:27:40;;;;;;;29.13;16.27;;;;;2.90;101397.00;;;;10299025;28;20247;-79
2022/03/04 20:32:42;;;;;;;27.73;17.37;;;;;2.70;101399.00;;;;10301081;28;20215;-79
2022/03/04 20:37:44;;;;;;;26.47;16.50;;;;;2.60;101400.00;;;;10310921;28;20235;-78
2022/03/04 20:42:46;;;;;;;25.80;16.73;;;;;2.50;101396.00;;;;10318751;28;20629;-78
2022/03/04 20:47:48;;;;;;;26.87;17.33;;;;;2.50;101396.00;;;;10302667;28;20203;-78
2022/03/04 20:52:50;;;;;;;30.80;17.90;;;;;2.30;101397.00;;;;10302285;28;20266;-78
2022/03/04 20:57:52;;;;;;;29.47;17.23;;;;;2.20;101387.00;;;;10286783;28;20235;-79
2022/03/04 21:02:55;;;;;;;25.37;15.03;;;;;2.10;101406.00;;;;10301288;28;20278;-78
2022/03/04 21:07:57;;;;;;;24.60;15.70;;;;;2.00;101404.00;;;;10337692;28;20249;-78
2022/03/04 21:12:59;;;;;;;25.97;15.33;;;;;1.90;101396.00;;;;10372675;28;20238;-78
2022/03/04 21:18:05;;;;;;;29.77;16.53;;;;;1.80;101400.00;;;;10339588;28;20698;-77
2022/03/04 21:23:07;;;;;;;27.47;17.23;;;;;1.70;101402.00;;;;10324242;28;20233;-78
2022/03/04 21:28:09;;;;;;;24.37;15.80;;;;;1.70;101408.00;;;;10314900;28;20279;-78
2022/03/04 21:33:11;;;;;;;31.07;18.27;;;;;1.70;101402.00;;;;10281988;28;20200;-78
2022/03/04 21:38:14;;;;;;;27.53;17.40;;;;;1.60;101406.00;;;;10282793;28;20228;-78
2022/03/04 21:43:16;;;;;;;34.13;20.70;;;;;1.50;101406.00;;;;10314733;28;20278;-78
2022/03/04 21:48:19;;;;;;;39.10;21.70;;;;;1.60;101393.00;;;;10294799;28;20200;-78
2022/03/04 21:53:23;;;;;;;39.80;23.67;;;;;1.60;101399.00;;;;10299197;28;20657;-77
2022/03/04 21:58:25;;;;;;;40.50;23.47;;;;;1.60;101406.00;;;;10297733;28;20196;-78
2022/03/04 22:03:27;;;;;;;33.83;20.00;;;;;1.50;101403.00;;;;10298622;28;20220;-78
2022/03/04 22:08:29;;;;;;;34.47;21.37;;;;;1.40;101408.00;;;;10337588;28;20290;-78
2022/03/04 22:13:33;;;;;;;34.60;20.57;;;;;1.30;101397.00;;;;10338052;28;20195;-78
2022/03/04 22:18:35;;;;;;;33.17;19.90;;;;;1.30;101393.00;;;;10353959;28;20277;-78
2022/03/04 22:23:37;;;;;;;29.23;19.10;;;;;1.40;101403.00;;;;10300883;28;20223;-78
2022/03/04 22:28:39;;;;;;;34.60;19.60;;;;;1.50;101387.00;;;;10243839;28;20283;-77
2022/03/04 22:33:40;;;;;;;32.13;18.90;;;;;1.50;101395.00;;;;10295811;28;20621;-78
2022/03/04 22:38:43;;;;;;;33.90;19.57;;;;;1.30;101393.00;;;;10342250;28;20227;-77
2022/03/04 22:43:44;;;;;;;34.20;19.33;;;;;1.10;101388.00;;;;10354774;28;20254;-78
2022/03/04 22:48:46;;;;;;;33.27;19.13;;;;;1.00;101383.00;;;;10304843;28;20231;-78
2022/03/04 22:53:48;;;;;;;35.83;19.83;;;;;1.00;101385.00;;;;10288567;28;20823;-78
2022/03/04 22:58:50;;;;;;;33.13;19.40;;;;;0.80;101381.00;;;;10311611;28;20204;-78
2022/03/04 23:09:14;;;;;;;37.87;19.67;;;;;0.50;101367.00;;;;10324184;28;20200;-78
2022/03/04 23:14:16;;;;;;;33.40;19.37;;;;;0.40;101363.00;;;;10310355;28;20188;-78
2022/03/04 23:19:19;;;;;;;33.30;20.67;;;;;0.30;101364.00;;;;10310944;28;20197;-78
2022/03/04 23:24:22;;;;;;;37.57;20.17;;;;;0.20;101369.00;;;;10309801;28;20200;-78
2022/03/04 23:29:25;;;;;;;32.77;19.67;;;;;0.10;101372.00;;;;10295516;28;20200;-78
2022/03/04 23:34:27;;;;;;;38.27;21.67;;;;;0.00;101373.00;;;;10279245;28;20208;-78
2022/03/04 23:39:29;;;;;;;32.90;19.43;;;;;-0.10;101372.00;;;;10352917;28;20222;-79
2022/03/04 23:44:31;;;;;;;34.50;20.33;;;;;-0.20;101365.00;;;;10287952;28;20231;-78
2022/03/04 23:49:34;;;;;;;39.33;20.60;;;;;-0.30;101373.00;;;;10279242;28;20211;-78
2022/03/04 23:54:36;;;;;;;32.97;20.53;;;;;-0.40;101367.00;;;;10292867;28;20212;-79
2022/03/04 23:59:38;;;;;;;35.40;19.53;;;;;-0.50;101372.00;;;;10295613;28;20216;-79
